Guadassuar, Spain
Current Conditions -  °F | °C
As of 1:00 AM on Sunday 26 Oct 2014 (Local Time) from LEVC Reporting Station
Clear Clear  
Wind Chill: 61°   Ceiling: Unl
Heat Index: 61°   Visibility: 6mi
Dew Point: 55°   Wind: 3mph
Humidity: 82%   Direction: 280°W
Pressure: 30.15"   Gusts: NA
Location:  39.18°N, 0.47°W
Report Text: LEVC 252300Z 28003KT CAVOK 16/13 Q1021 NOSIG
Loading
Personal Weather Stations






























Interactive Weather Map
Tropical Storm Tracking
New forecast layout! Learn more

10-Day Weather Forecast

Advertisements
Track Severe Weather on mobile